Cochin International Airport
VOCI : now visible

Airfield :











YOU CAN JOIN US ON...

 
LOGIN :

Register | Disclaimer

   EN    FR    IT 

 









Legend :    VFR   Marginal VFR   IFR   Intensive IFR   Very Intensive IFR
Visi :
Ceiling :
>= 8 km
>= 3000ft
5 to 8 km
1000 to 3000 ft
1500m to 5 km
500 to 1000 ft
800 to 1500m
200 to 500 ft
< 800m
< 200 ft
Symbols :   Thunderstorms  Fog  Heavy snow  Heavy precipitations  Wind > 20 kt






- Airport Elevation : 30 ft
- IATA code : COK


VOCI - Cochin International

CURRENT METAR :
  • 251600Z 00000KT 4000 HZ NSC 27/23 Q1013 NOSIG

EXPIRED METARs :
  • 251530Z 00000KT 5000 HZ NSC 27/23 Q1012 BECMG 4000 HZ
  • 251500Z 00000KT 5000 HZ NSC 27/23 Q1012 NOSIG
  • 251430Z 00000KT 5000 HZ NSC 28/23 Q1011 NOSIG
  • 251400Z 00000KT 5000 HZ NSC 29/23 Q1011 NOSIG
  • 251330Z 24004KT 5000 HZ NSC 29/23 Q1010 NOSIG

TAF TAF VOCI
Valid from the 25 at 15:00 until the 26 at 00:00 UTC


251400Z 2515/2524 25005KT 4000 HZ FEW015
BECMG 2517/2518 VRB03KT 3000 HZ FEW015
BECMG 2523/2524 06005KT 2000 BR -RA SCT010 SCT015



MET'MAP, your aeronautical weather chart ! - Copyright ORBIFLY December 2007 - Disclaimer

ORBIFLY MET'MAP TEAM :

Programming & Development : Alexandra Zaïnal
Concept & original design : Baudouin d'Aumeries
Assistance for programming : Marc-Olivier Méhu
Technical & hardware support : Manuel Goepfert

Contact : metmap@orbifly.com




SOURCES & CREDITS :

   NOAA       Earth
Advisory